sensor_id;sensor_type;location;lat;lon;timestamp;P1;durP1;ratioP1;P2;durP2;ratioP2
18838;SDS011;9548;56.920;14.804;2022-09-09T00:01:57;2.47;;;0.90;;
18838;SDS011;9548;56.920;14.804;2022-09-09T00:04:28;5.53;;;1.08;;
18838;SDS011;9548;56.920;14.804;2022-09-09T00:07:01;3.13;;;0.90;;
18838;SDS011;9548;56.920;14.804;2022-09-09T00:09:34;3.10;;;1.05;;
18838;SDS011;9548;56.920;14.804;2022-09-09T00:12:10;1.20;;;0.90;;
18838;SDS011;9548;56.920;14.804;2022-09-09T00:14:41;1.30;;;0.90;;
18838;SDS011;9548;56.920;14.804;2022-09-09T00:17:14;4.50;;;1.00;;
18838;SDS011;9548;56.920;14.804;2022-09-09T00:19:53;3.08;;;1.20;;
18838;SDS011;9548;56.920;14.804;2022-09-09T00:22:27;3.90;;;1.02;;
18838;SDS011;9548;56.920;14.804;2022-09-09T00:24:58;2.08;;;1.17;;
18838;SDS011;9548;56.920;14.804;2022-09-09T00:27:36;1.10;;;1.00;;
18838;SDS011;9548;56.920;14.804;2022-09-09T00:30:14;1.60;;;0.85;;
18838;SDS011;9548;56.920;14.804;2022-09-09T00:32:44;2.70;;;1.00;;
18838;SDS011;9548;56.920;14.804;2022-09-09T00:35:15;3.03;;;1.10;;
18838;SDS011;9548;56.920;14.804;2022-09-09T00:37:46;2.15;;;1.10;;
18838;SDS011;9548;56.920;14.804;2022-09-09T00:40:18;3.15;;;1.00;;
18838;SDS011;9548;56.920;14.804;2022-09-09T00:42:52;2.33;;;1.02;;
18838;SDS011;9548;56.920;14.804;2022-09-09T00:45:42;1.52;;;0.88;;
18838;SDS011;9548;56.920;14.804;2022-09-09T00:48:21;3.40;;;1.50;;
18838;SDS011;9548;56.920;14.804;2022-09-09T00:50:55;3.90;;;1.30;;
18838;SDS011;9548;56.920;14.804;2022-09-09T00:53:30;4.05;;;1.13;;
18838;SDS011;9548;56.920;14.804;2022-09-09T00:56:08;5.07;;;1.25;;
18838;SDS011;9548;56.920;14.804;2022-09-09T00:58:39;1.08;;;0.80;;
18838;SDS011;9548;56.920;14.804;2022-09-09T01:01:09;4.63;;;1.20;;
18838;SDS011;9548;56.920;14.804;2022-09-09T01:03:38;1.65;;;1.00;;
18838;SDS011;9548;56.920;14.804;2022-09-09T01:06:15;2.40;;;1.27;;
18838;SDS011;9548;56.920;14.804;2022-09-09T01:08:56;6.45;;;1.55;;
18838;SDS011;9548;56.920;14.804;2022-09-09T01:11:32;6.97;;;1.25;;
18838;SDS011;9548;56.920;14.804;2022-09-09T01:14:16;1.45;;;1.10;;
18838;SDS011;9548;56.920;14.804;2022-09-09T01:16:53;2.72;;;1.15;;
18838;SDS011;9548;56.920;14.804;2022-09-09T01:19:24;2.90;;;0.98;;
18838;SDS011;9548;56.920;14.804;2022-09-09T01:22:06;3.75;;;1.20;;
18838;SDS011;9548;56.920;14.804;2022-09-09T01:24:45;3.83;;;1.35;;
18838;SDS011;9548;56.920;14.804;2022-09-09T01:27:23;2.30;;;1.17;;
18838;SDS011;9548;56.920;14.804;2022-09-09T01:29:51;1.45;;;1.20;;
18838;SDS011;9548;56.920;14.804;2022-09-09T01:35:05;2.50;;;1.20;;
18838;SDS011;9548;56.920;14.804;2022-09-09T01:37:35;3.72;;;1.30;;
18838;SDS011;9548;56.920;14.804;2022-09-09T01:40:03;5.72;;;1.27;;
18838;SDS011;9548;56.920;14.804;2022-09-09T01:42:31;2.65;;;1.27;;
18838;SDS011;9548;56.920;14.804;2022-09-09T01:44:58;5.22;;;1.35;;
18838;SDS011;9548;56.920;14.804;2022-09-09T01:47:25;1.25;;;1.08;;
18838;SDS011;9548;56.920;14.804;2022-09-09T01:49:55;2.30;;;1.33;;
18838;SDS011;9548;56.920;14.804;2022-09-09T01:52:29;1.67;;;1.27;;
18838;SDS011;9548;56.920;14.804;2022-09-09T01:54:56;2.00;;;1.17;;
18838;SDS011;9548;56.920;14.804;2022-09-09T01:57:24;4.35;;;1.65;;
18838;SDS011;9548;56.920;14.804;2022-09-09T02:00:00;1.92;;;1.20;;
18838;SDS011;9548;56.920;14.804;2022-09-09T02:02:32;3.13;;;1.15;;
18838;SDS011;9548;56.920;14.804;2022-09-09T02:05:08;5.18;;;1.63;;
18838;SDS011;9548;56.920;14.804;2022-09-09T02:07:44;5.75;;;1.60;;
18838;SDS011;9548;56.920;14.804;2022-09-09T02:10:17;5.22;;;1.45;;
18838;SDS011;9548;56.920;14.804;2022-09-09T02:12:47;3.67;;;1.98;;
18838;SDS011;9548;56.920;14.804;2022-09-09T02:15:20;2.15;;;1.25;;
18838;SDS011;9548;56.920;14.804;2022-09-09T02:17:52;4.78;;;1.52;;
18838;SDS011;9548;56.920;14.804;2022-09-09T02:20:22;7.03;;;1.58;;
18838;SDS011;9548;56.920;14.804;2022-09-09T02:22:51;4.25;;;1.58;;
18838;SDS011;9548;56.920;14.804;2022-09-09T02:25:20;2.40;;;1.30;;
18838;SDS011;9548;56.920;14.804;2022-09-09T02:27:51;3.30;;;1.30;;
18838;SDS011;9548;56.920;14.804;2022-09-09T02:30:19;6.80;;;1.45;;
18838;SDS011;9548;56.920;14.804;2022-09-09T02:32:47;5.63;;;1.65;;
18838;SDS011;9548;56.920;14.804;2022-09-09T02:35:17;3.75;;;1.60;;
18838;SDS011;9548;56.920;14.804;2022-09-09T02:37:47;7.53;;;1.33;;
18838;SDS011;9548;56.920;14.804;2022-09-09T02:40:17;6.22;;;1.88;;
18838;SDS011;9548;56.920;14.804;2022-09-09T02:42:46;2.75;;;1.40;;
18838;SDS011;9548;56.920;14.804;2022-09-09T02:45:15;2.97;;;1.73;;
18838;SDS011;9548;56.920;14.804;2022-09-09T02:47:47;5.35;;;1.85;;
18838;SDS011;9548;56.920;14.804;2022-09-09T02:50:19;2.40;;;1.42;;
18838;SDS011;9548;56.920;14.804;2022-09-09T02:52:54;3.70;;;1.88;;
18838;SDS011;9548;56.920;14.804;2022-09-09T02:55:33;7.35;;;1.38;;
18838;SDS011;9548;56.920;14.804;2022-09-09T02:58:08;3.30;;;1.52;;
18838;SDS011;9548;56.920;14.804;2022-09-09T03:00:37;2.90;;;1.52;;
18838;SDS011;9548;56.920;14.804;2022-09-09T03:03:06;7.82;;;1.50;;
18838;SDS011;9548;56.920;14.804;2022-09-09T03:05:35;3.33;;;1.80;;
18838;SDS011;9548;56.920;14.804;2022-09-09T03:08:02;3.25;;;1.70;;
18838;SDS011;9548;56.920;14.804;2022-09-09T03:10:30;2.42;;;1.70;;
18838;SDS011;9548;56.920;14.804;2022-09-09T03:12:57;4.57;;;1.70;;
18838;SDS011;9548;56.920;14.804;2022-09-09T03:15:25;2.65;;;1.30;;
18838;SDS011;9548;56.920;14.804;2022-09-09T03:17:54;3.88;;;1.45;;
18838;SDS011;9548;56.920;14.804;2022-09-09T03:20:23;2.63;;;1.90;;
18838;SDS011;9548;56.920;14.804;2022-09-09T03:22:51;5.00;;;1.75;;
18838;SDS011;9548;56.920;14.804;2022-09-09T03:25:18;8.52;;;1.70;;
18838;SDS011;9548;56.920;14.804;2022-09-09T03:27:45;3.83;;;1.80;;
18838;SDS011;9548;56.920;14.804;2022-09-09T03:30:12;4.13;;;1.92;;
18838;SDS011;9548;56.920;14.804;2022-09-09T03:32:39;3.00;;;1.35;;
18838;SDS011;9548;56.920;14.804;2022-09-09T03:35:06;3.92;;;1.50;;
18838;SDS011;9548;56.920;14.804;2022-09-09T03:37:35;2.80;;;1.90;;
18838;SDS011;9548;56.920;14.804;2022-09-09T03:40:04;4.00;;;1.50;;
18838;SDS011;9548;56.920;14.804;2022-09-09T03:42:31;5.05;;;1.88;;
18838;SDS011;9548;56.920;14.804;2022-09-09T03:44:58;3.55;;;1.42;;
18838;SDS011;9548;56.920;14.804;2022-09-09T03:47:25;11.07;;;1.73;;
18838;SDS011;9548;56.920;14.804;2022-09-09T03:49:52;3.67;;;1.77;;
18838;SDS011;9548;56.920;14.804;2022-09-09T03:52:19;4.03;;;1.73;;
18838;SDS011;9548;56.920;14.804;2022-09-09T03:54:48;4.18;;;1.48;;
18838;SDS011;9548;56.920;14.804;2022-09-09T03:57:15;8.10;;;2.03;;
18838;SDS011;9548;56.920;14.804;2022-09-09T03:59:42;4.78;;;1.80;;
18838;SDS011;9548;56.920;14.804;2022-09-09T04:02:09;4.28;;;2.00;;
18838;SDS011;9548;56.920;14.804;2022-09-09T04:04:36;7.20;;;1.75;;
18838;SDS011;9548;56.920;14.804;2022-09-09T04:07:03;2.50;;;1.63;;
18838;SDS011;9548;56.920;14.804;2022-09-09T04:09:31;3.05;;;1.60;;
18838;SDS011;9548;56.920;14.804;2022-09-09T04:12:01;5.18;;;1.80;;
18838;SDS011;9548;56.920;14.804;2022-09-09T04:14:29;2.80;;;1.85;;
18838;SDS011;9548;56.920;14.804;2022-09-09T04:16:56;6.88;;;2.05;;
18838;SDS011;9548;56.920;14.804;2022-09-09T04:19:24;7.22;;;2.15;;
18838;SDS011;9548;56.920;14.804;2022-09-09T04:21:52;3.63;;;1.67;;
18838;SDS011;9548;56.920;14.804;2022-09-09T04:24:18;5.30;;;1.58;;
18838;SDS011;9548;56.920;14.804;2022-09-09T04:26:46;5.30;;;2.00;;
18838;SDS011;9548;56.920;14.804;2022-09-09T04:29:15;5.43;;;1.98;;
18838;SDS011;9548;56.920;14.804;2022-09-09T04:31:42;6.25;;;1.80;;
18838;SDS011;9548;56.920;14.804;2022-09-09T04:34:09;6.00;;;1.83;;
18838;SDS011;9548;56.920;14.804;2022-09-09T04:36:36;3.15;;;1.58;;
18838;SDS011;9548;56.920;14.804;2022-09-09T04:39:04;5.18;;;2.22;;
18838;SDS011;9548;56.920;14.804;2022-09-09T04:41:31;6.72;;;1.83;;
18838;SDS011;9548;56.920;14.804;2022-09-09T04:43:58;7.90;;;2.00;;
18838;SDS011;9548;56.920;14.804;2022-09-09T04:46:27;8.75;;;1.83;;
18838;SDS011;9548;56.920;14.804;2022-09-09T04:48:54;2.67;;;1.55;;
18838;SDS011;9548;56.920;14.804;2022-09-09T04:51:21;3.17;;;1.80;;
18838;SDS011;9548;56.920;14.804;2022-09-09T04:53:48;5.13;;;1.70;;
18838;SDS011;9548;56.920;14.804;2022-09-09T04:56:16;4.50;;;1.70;;
18838;SDS011;9548;56.920;14.804;2022-09-09T04:58:43;2.55;;;1.80;;
18838;SDS011;9548;56.920;14.804;2022-09-09T05:01:11;7.22;;;1.92;;
18838;SDS011;9548;56.920;14.804;2022-09-09T05:03:40;4.68;;;1.77;;
18838;SDS011;9548;56.920;14.804;2022-09-09T05:06:08;5.57;;;1.92;;
18838;SDS011;9548;56.920;14.804;2022-09-09T05:08:36;5.60;;;1.73;;
18838;SDS011;9548;56.920;14.804;2022-09-09T05:11:04;5.15;;;1.70;;
18838;SDS011;9548;56.920;14.804;2022-09-09T05:13:42;9.32;;;1.75;;
18838;SDS011;9548;56.920;14.804;2022-09-09T05:16:09;4.68;;;1.52;;
18838;SDS011;9548;56.920;14.804;2022-09-09T05:18:36;4.75;;;2.10;;
18838;SDS011;9548;56.920;14.804;2022-09-09T05:21:05;3.50;;;1.55;;
18838;SDS011;9548;56.920;14.804;2022-09-09T05:23:32;3.97;;;1.70;;
18838;SDS011;9548;56.920;14.804;2022-09-09T05:26:00;6.00;;;1.90;;
18838;SDS011;9548;56.920;14.804;2022-09-09T05:28:28;3.72;;;1.55;;
18838;SDS011;9548;56.920;14.804;2022-09-09T05:30:56;4.63;;;1.52;;
18838;SDS011;9548;56.920;14.804;2022-09-09T05:33:23;4.95;;;1.60;;
18838;SDS011;9548;56.920;14.804;2022-09-09T05:36:00;4.07;;;1.90;;
18838;SDS011;9548;56.920;14.804;2022-09-09T05:38:31;1.88;;;1.27;;
18838;SDS011;9548;56.920;14.804;2022-09-09T05:40:59;6.15;;;1.92;;
18838;SDS011;9548;56.920;14.804;2022-09-09T05:43:27;5.72;;;1.70;;
18838;SDS011;9548;56.920;14.804;2022-09-09T05:46:01;4.18;;;1.70;;
18838;SDS011;9548;56.920;14.804;2022-09-09T05:48:30;5.88;;;1.60;;
18838;SDS011;9548;56.920;14.804;2022-09-09T05:50:58;4.70;;;2.45;;
18838;SDS011;9548;56.920;14.804;2022-09-09T05:53:25;2.95;;;1.60;;
18838;SDS011;9548;56.920;14.804;2022-09-09T05:56:01;3.55;;;1.58;;
18838;SDS011;9548;56.920;14.804;2022-09-09T05:58:29;4.75;;;2.03;;
18838;SDS011;9548;56.920;14.804;2022-09-09T06:01:00;3.97;;;1.77;;
18838;SDS011;9548;56.920;14.804;2022-09-09T06:03:28;3.60;;;1.52;;
18838;SDS011;9548;56.920;14.804;2022-09-09T06:05:58;5.60;;;1.80;;
18838;SDS011;9548;56.920;14.804;2022-09-09T06:08:26;4.30;;;1.88;;
18838;SDS011;9548;56.920;14.804;2022-09-09T06:10:53;5.85;;;1.73;;
18838;SDS011;9548;56.920;14.804;2022-09-09T06:13:29;3.08;;;1.50;;
18838;SDS011;9548;56.920;14.804;2022-09-09T06:15:56;6.38;;;1.73;;
18838;SDS011;9548;56.920;14.804;2022-09-09T06:18:24;3.78;;;1.70;;
18838;SDS011;9548;56.920;14.804;2022-09-09T06:20:54;6.05;;;1.73;;
18838;SDS011;9548;56.920;14.804;2022-09-09T06:23:22;5.85;;;1.70;;
18838;SDS011;9548;56.920;14.804;2022-09-09T06:25:49;3.55;;;1.75;;
18838;SDS011;9548;56.920;14.804;2022-09-09T06:28:16;6.13;;;1.90;;
18838;SDS011;9548;56.920;14.804;2022-09-09T06:30:45;3.58;;;1.90;;
18838;SDS011;9548;56.920;14.804;2022-09-09T06:33:12;7.68;;;1.80;;
18838;SDS011;9548;56.920;14.804;2022-09-09T06:35:39;6.53;;;1.70;;
18838;SDS011;9548;56.920;14.804;2022-09-09T06:38:06;4.75;;;1.73;;
18838;SDS011;9548;56.920;14.804;2022-09-09T06:40:33;3.28;;;1.60;;
18838;SDS011;9548;56.920;14.804;2022-09-09T06:43:00;5.82;;;1.73;;
18838;SDS011;9548;56.920;14.804;2022-09-09T06:45:27;4.75;;;1.90;;
18838;SDS011;9548;56.920;14.804;2022-09-09T06:47:56;6.10;;;1.67;;
18838;SDS011;9548;56.920;14.804;2022-09-09T06:50:23;6.13;;;1.73;;
18838;SDS011;9548;56.920;14.804;2022-09-09T06:52:50;3.70;;;1.80;;
18838;SDS011;9548;56.920;14.804;2022-09-09T06:55:17;4.43;;;1.90;;
18838;SDS011;9548;56.920;14.804;2022-09-09T06:57:44;3.75;;;1.63;;
18838;SDS011;9548;56.920;14.804;2022-09-09T07:00:11;2.95;;;1.67;;
18838;SDS011;9548;56.920;14.804;2022-09-09T07:02:39;6.65;;;1.83;;
18838;SDS011;9548;56.920;14.804;2022-09-09T07:05:08;2.97;;;1.48;;
18838;SDS011;9548;56.920;14.804;2022-09-09T07:07:35;4.57;;;1.58;;
18838;SDS011;9548;56.920;14.804;2022-09-09T07:10:03;7.50;;;1.70;;
18838;SDS011;9548;56.920;14.804;2022-09-09T07:12:30;6.55;;;1.90;;
18838;SDS011;9548;56.920;14.804;2022-09-09T07:14:57;5.78;;;1.75;;
18838;SDS011;9548;56.920;14.804;2022-09-09T07:17:24;7.90;;;1.83;;
18838;SDS011;9548;56.920;14.804;2022-09-09T07:19:51;8.30;;;1.90;;
18838;SDS011;9548;56.920;14.804;2022-09-09T07:22:19;7.38;;;1.70;;
18838;SDS011;9548;56.920;14.804;2022-09-09T07:24:46;5.07;;;1.80;;
18838;SDS011;9548;56.920;14.804;2022-09-09T07:27:14;4.18;;;1.73;;
18838;SDS011;9548;56.920;14.804;2022-09-09T07:29:41;5.68;;;1.80;;
18838;SDS011;9548;56.920;14.804;2022-09-09T07:32:08;5.43;;;1.73;;
18838;SDS011;9548;56.920;14.804;2022-09-09T07:34:35;6.28;;;1.80;;
18838;SDS011;9548;56.920;14.804;2022-09-09T07:37:02;5.93;;;1.95;;
18838;SDS011;9548;56.920;14.804;2022-09-09T07:39:30;6.03;;;1.80;;
18838;SDS011;9548;56.920;14.804;2022-09-09T07:41:57;3.65;;;1.70;;
18838;SDS011;9548;56.920;14.804;2022-09-09T07:44:24;4.53;;;1.70;;
18838;SDS011;9548;56.920;14.804;2022-09-09T07:46:51;4.35;;;1.73;;
18838;SDS011;9548;56.920;14.804;2022-09-09T07:49:19;5.90;;;1.80;;
18838;SDS011;9548;56.920;14.804;2022-09-09T07:51:46;4.95;;;2.05;;
18838;SDS011;9548;56.920;14.804;2022-09-09T07:54:15;3.33;;;1.67;;
18838;SDS011;9548;56.920;14.804;2022-09-09T07:56:47;6.72;;;2.08;;
18838;SDS011;9548;56.920;14.804;2022-09-09T07:59:14;9.88;;;2.60;;
18838;SDS011;9548;56.920;14.804;2022-09-09T08:01:43;5.82;;;1.95;;
18838;SDS011;9548;56.920;14.804;2022-09-09T08:04:12;6.78;;;1.92;;
18838;SDS011;9548;56.920;14.804;2022-09-09T08:06:42;3.72;;;1.98;;
18838;SDS011;9548;56.920;14.804;2022-09-09T08:09:11;6.90;;;2.15;;
18838;SDS011;9548;56.920;14.804;2022-09-09T08:11:39;7.65;;;2.45;;
18838;SDS011;9548;56.920;14.804;2022-09-09T08:14:08;5.60;;;1.83;;
18838;SDS011;9548;56.920;14.804;2022-09-09T08:16:37;10.48;;;1.85;;
18838;SDS011;9548;56.920;14.804;2022-09-09T08:19:05;6.00;;;2.33;;
18838;SDS011;9548;56.920;14.804;2022-09-09T08:21:32;6.53;;;2.08;;
18838;SDS011;9548;56.920;14.804;2022-09-09T08:24:02;5.57;;;1.70;;
18838;SDS011;9548;56.920;14.804;2022-09-09T08:26:30;3.03;;;1.92;;
18838;SDS011;9548;56.920;14.804;2022-09-09T08:28:59;3.80;;;1.90;;
18838;SDS011;9548;56.920;14.804;2022-09-09T08:31:30;6.38;;;2.15;;
18838;SDS011;9548;56.920;14.804;2022-09-09T08:33:58;3.75;;;1.90;;
18838;SDS011;9548;56.920;14.804;2022-09-09T08:36:27;6.18;;;2.13;;
18838;SDS011;9548;56.920;14.804;2022-09-09T08:38:56;3.92;;;1.80;;
18838;SDS011;9548;56.920;14.804;2022-09-09T08:44:28;5.90;;;1.90;;
18838;SDS011;9548;56.920;14.804;2022-09-09T08:47:10;9.40;;;2.10;;
18838;SDS011;9548;56.920;14.804;2022-09-09T08:49:53;3.67;;;1.98;;
18838;SDS011;9548;56.920;14.804;2022-09-09T08:52:29;5.10;;;1.80;;
18838;SDS011;9548;56.920;14.804;2022-09-09T08:55:01;6.57;;;1.98;;
18838;SDS011;9548;56.920;14.804;2022-09-09T08:57:38;11.75;;;2.00;;
18838;SDS011;9548;56.920;14.804;2022-09-09T09:00:07;9.38;;;2.40;;
18838;SDS011;9548;56.920;14.804;2022-09-09T09:02:39;5.07;;;1.95;;
18838;SDS011;9548;56.920;14.804;2022-09-09T09:05:16;4.78;;;2.30;;
18838;SDS011;9548;56.920;14.804;2022-09-09T09:07:53;6.13;;;2.13;;
18838;SDS011;9548;56.920;14.804;2022-09-09T09:10:37;6.28;;;2.17;;
18838;SDS011;9548;56.920;14.804;2022-09-09T09:13:13;6.68;;;1.95;;
18838;SDS011;9548;56.920;14.804;2022-09-09T09:15:43;5.50;;;2.22;;
18838;SDS011;9548;56.920;14.804;2022-09-09T09:18:14;8.23;;;2.47;;
18838;SDS011;9548;56.920;14.804;2022-09-09T09:20:45;3.25;;;2.08;;
18838;SDS011;9548;56.920;14.804;2022-09-09T09:23:21;7.35;;;2.42;;
18838;SDS011;9548;56.920;14.804;2022-09-09T09:25:50;6.38;;;2.22;;
18838;SDS011;9548;56.920;14.804;2022-09-09T09:28:23;7.00;;;2.38;;
18838;SDS011;9548;56.920;14.804;2022-09-09T09:30:52;7.05;;;1.90;;
18838;SDS011;9548;56.920;14.804;2022-09-09T09:33:25;8.93;;;2.45;;
18838;SDS011;9548;56.920;14.804;2022-09-09T09:35:56;5.53;;;2.65;;
18838;SDS011;9548;56.920;14.804;2022-09-09T09:38:25;4.30;;;2.15;;
18838;SDS011;9548;56.920;14.804;2022-09-09T09:40:54;8.13;;;2.90;;
18838;SDS011;9548;56.920;14.804;2022-09-09T09:43:24;6.70;;;2.40;;
18838;SDS011;9548;56.920;14.804;2022-09-09T09:45:53;6.15;;;2.10;;
18838;SDS011;9548;56.920;14.804;2022-09-09T09:48:20;5.45;;;2.42;;
18838;SDS011;9548;56.920;14.804;2022-09-09T09:50:49;5.85;;;2.20;;
18838;SDS011;9548;56.920;14.804;2022-09-09T09:53:20;7.15;;;2.30;;
18838;SDS011;9548;56.920;14.804;2022-09-09T09:55:51;4.65;;;2.30;;
18838;SDS011;9548;56.920;14.804;2022-09-09T09:58:21;6.00;;;2.30;;
18838;SDS011;9548;56.920;14.804;2022-09-09T10:00:48;7.18;;;2.55;;
18838;SDS011;9548;56.920;14.804;2022-09-09T10:03:22;9.25;;;2.72;;
18838;SDS011;9548;56.920;14.804;2022-09-09T10:05:52;6.90;;;2.67;;
18838;SDS011;9548;56.920;14.804;2022-09-09T10:08:21;6.72;;;2.53;;
18838;SDS011;9548;56.920;14.804;2022-09-09T10:10:59;5.78;;;2.35;;
18838;SDS011;9548;56.920;14.804;2022-09-09T10:13:35;6.45;;;2.30;;
18838;SDS011;9548;56.920;14.804;2022-09-09T10:16:21;7.20;;;2.53;;
18838;SDS011;9548;56.920;14.804;2022-09-09T10:18:58;5.95;;;3.00;;
18838;SDS011;9548;56.920;14.804;2022-09-09T10:21:31;4.50;;;2.45;;
18838;SDS011;9548;56.920;14.804;2022-09-09T10:27:03;5.22;;;2.58;;
18838;SDS011;9548;56.920;14.804;2022-09-09T10:32:37;6.82;;;2.53;;
18838;SDS011;9548;56.920;14.804;2022-09-09T10:35:12;7.63;;;2.55;;
18838;SDS011;9548;56.920;14.804;2022-09-09T10:37:53;4.13;;;2.55;;
18838;SDS011;9548;56.920;14.804;2022-09-09T10:40:42;4.93;;;2.53;;
18838;SDS011;9548;56.920;14.804;2022-09-09T10:43:28;3.97;;;2.70;;
18838;SDS011;9548;56.920;14.804;2022-09-09T10:46:10;3.22;;;2.15;;
18838;SDS011;9548;56.920;14.804;2022-09-09T10:48:53;3.85;;;2.53;;
18838;SDS011;9548;56.920;14.804;2022-09-09T10:51:43;4.07;;;2.50;;
18838;SDS011;9548;56.920;14.804;2022-09-09T10:54:23;6.78;;;2.67;;
18838;SDS011;9548;56.920;14.804;2022-09-09T10:56:59;5.88;;;2.67;;
18838;SDS011;9548;56.920;14.804;2022-09-09T10:59:31;6.63;;;2.67;;
18838;SDS011;9548;56.920;14.804;2022-09-09T11:02:05;5.07;;;2.45;;
18838;SDS011;9548;56.920;14.804;2022-09-09T11:04:42;7.63;;;2.63;;
18838;SDS011;9548;56.920;14.804;2022-09-09T11:07:23;5.53;;;2.58;;
18838;SDS011;9548;56.920;14.804;2022-09-09T11:09:58;5.93;;;2.63;;
18838;SDS011;9548;56.920;14.804;2022-09-09T11:12:28;3.47;;;2.40;;
18838;SDS011;9548;56.920;14.804;2022-09-09T11:14:57;4.20;;;2.30;;
18838;SDS011;9548;56.920;14.804;2022-09-09T11:17:32;5.55;;;2.58;;
18838;SDS011;9548;56.920;14.804;2022-09-09T11:20:05;5.38;;;2.40;;
18838;SDS011;9548;56.920;14.804;2022-09-09T11:22:37;5.18;;;2.63;;
18838;SDS011;9548;56.920;14.804;2022-09-09T11:25:14;5.88;;;2.55;;
18838;SDS011;9548;56.920;14.804;2022-09-09T11:27:45;3.83;;;2.30;;
18838;SDS011;9548;56.920;14.804;2022-09-09T11:30:24;4.03;;;2.30;;
18838;SDS011;9548;56.920;14.804;2022-09-09T11:33:07;4.05;;;2.13;;
18838;SDS011;9548;56.920;14.804;2022-09-09T11:35:59;5.63;;;2.53;;
18838;SDS011;9548;56.920;14.804;2022-09-09T11:38:47;8.93;;;2.42;;
18838;SDS011;9548;56.920;14.804;2022-09-09T11:41:18;3.80;;;2.42;;
18838;SDS011;9548;56.920;14.804;2022-09-09T11:43:46;3.67;;;2.28;;
18838;SDS011;9548;56.920;14.804;2022-09-09T11:46:17;4.65;;;2.38;;
18838;SDS011;9548;56.920;14.804;2022-09-09T11:48:57;5.65;;;2.70;;
18838;SDS011;9548;56.920;14.804;2022-09-09T11:51:26;6.18;;;2.17;;
18838;SDS011;9548;56.920;14.804;2022-09-09T11:53:55;3.47;;;2.17;;
18838;SDS011;9548;56.920;14.804;2022-09-09T11:56:25;5.45;;;2.65;;
18838;SDS011;9548;56.920;14.804;2022-09-09T11:58:56;2.50;;;2.10;;
18838;SDS011;9548;56.920;14.804;2022-09-09T12:01:29;3.83;;;2.10;;
18838;SDS011;9548;56.920;14.804;2022-09-09T12:04:11;4.38;;;2.47;;
18838;SDS011;9548;56.920;14.804;2022-09-09T12:06:49;4.25;;;2.58;;
18838;SDS011;9548;56.920;14.804;2022-09-09T12:09:21;3.28;;;2.13;;
18838;SDS011;9548;56.920;14.804;2022-09-09T12:11:53;6.90;;;2.10;;
18838;SDS011;9548;56.920;14.804;2022-09-09T12:14:35;6.07;;;2.53;;
18838;SDS011;9548;56.920;14.804;2022-09-09T12:17:10;4.97;;;2.50;;
18838;SDS011;9548;56.920;14.804;2022-09-09T12:19:45;5.13;;;2.47;;
18838;SDS011;9548;56.920;14.804;2022-09-09T12:22:15;5.40;;;2.15;;
18838;SDS011;9548;56.920;14.804;2022-09-09T12:24:51;8.13;;;2.20;;
18838;SDS011;9548;56.920;14.804;2022-09-09T12:27:25;3.28;;;2.28;;
18838;SDS011;9548;56.920;14.804;2022-09-09T12:29:59;2.88;;;2.03;;
18838;SDS011;9548;56.920;14.804;2022-09-09T12:32:29;4.68;;;2.25;;
18838;SDS011;9548;56.920;14.804;2022-09-09T12:34:57;4.68;;;2.22;;
18838;SDS011;9548;56.920;14.804;2022-09-09T12:37:29;3.83;;;2.45;;
18838;SDS011;9548;56.920;14.804;2022-09-09T12:40:00;6.72;;;2.38;;
18838;SDS011;9548;56.920;14.804;2022-09-09T12:42:31;4.00;;;2.35;;
18838;SDS011;9548;56.920;14.804;2022-09-09T12:44:59;5.80;;;2.53;;
18838;SDS011;9548;56.920;14.804;2022-09-09T12:47:33;5.85;;;2.45;;
18838;SDS011;9548;56.920;14.804;2022-09-09T12:50:10;3.20;;;2.30;;
18838;SDS011;9548;56.920;14.804;2022-09-09T12:52:42;4.85;;;2.05;;
18838;SDS011;9548;56.920;14.804;2022-09-09T12:55:16;6.80;;;2.67;;
18838;SDS011;9548;56.920;14.804;2022-09-09T12:57:48;3.40;;;2.50;;
18838;SDS011;9548;56.920;14.804;2022-09-09T13:00:17;5.20;;;2.40;;
18838;SDS011;9548;56.920;14.804;2022-09-09T13:02:46;4.25;;;2.38;;
18838;SDS011;9548;56.920;14.804;2022-09-09T13:05:17;6.30;;;2.47;;
18838;SDS011;9548;56.920;14.804;2022-09-09T13:07:46;5.05;;;2.35;;
18838;SDS011;9548;56.920;14.804;2022-09-09T13:10:14;3.95;;;2.10;;
18838;SDS011;9548;56.920;14.804;2022-09-09T13:12:48;3.78;;;2.25;;
18838;SDS011;9548;56.920;14.804;2022-09-09T13:15:18;3.38;;;2.20;;
18838;SDS011;9548;56.920;14.804;2022-09-09T13:17:50;4.43;;;2.50;;
18838;SDS011;9548;56.920;14.804;2022-09-09T13:20:19;4.50;;;2.33;;
18838;SDS011;9548;56.920;14.804;2022-09-09T13:22:47;4.57;;;2.20;;
18838;SDS011;9548;56.920;14.804;2022-09-09T13:25:18;4.55;;;2.30;;
18838;SDS011;9548;56.920;14.804;2022-09-09T13:27:59;3.60;;;2.25;;
18838;SDS011;9548;56.920;14.804;2022-09-09T13:30:29;3.88;;;1.85;;
18838;SDS011;9548;56.920;14.804;2022-09-09T13:33:02;2.53;;;1.73;;
18838;SDS011;9548;56.920;14.804;2022-09-09T13:35:48;2.22;;;1.67;;
18838;SDS011;9548;56.920;14.804;2022-09-09T13:38:17;6.80;;;1.88;;
18838;SDS011;9548;56.920;14.804;2022-09-09T13:40:54;3.05;;;2.00;;
18838;SDS011;9548;56.920;14.804;2022-09-09T13:43:25;6.82;;;2.20;;
18838;SDS011;9548;56.920;14.804;2022-09-09T13:45:54;3.70;;;2.25;;
18838;SDS011;9548;56.920;14.804;2022-09-09T13:48:22;4.70;;;2.35;;
18838;SDS011;9548;56.920;14.804;2022-09-09T13:50:54;4.05;;;2.05;;
18838;SDS011;9548;56.920;14.804;2022-09-09T13:53:25;2.97;;;1.90;;
18838;SDS011;9548;56.920;14.804;2022-09-09T13:55:52;2.85;;;2.05;;
18838;SDS011;9548;56.920;14.804;2022-09-09T13:58:19;4.40;;;2.00;;
18838;SDS011;9548;56.920;14.804;2022-09-09T14:00:49;4.07;;;2.65;;
18838;SDS011;9548;56.920;14.804;2022-09-09T14:03:16;7.20;;;2.80;;
18838;SDS011;9548;56.920;14.804;2022-09-09T14:05:43;3.42;;;2.33;;
18838;SDS011;9548;56.920;14.804;2022-09-09T14:08:15;3.55;;;1.85;;
18838;SDS011;9548;56.920;14.804;2022-09-09T14:10:47;3.67;;;2.10;;
18838;SDS011;9548;56.920;14.804;2022-09-09T14:13:14;4.65;;;2.58;;
18838;SDS011;9548;56.920;14.804;2022-09-09T14:15:41;3.97;;;2.58;;
18838;SDS011;9548;56.920;14.804;2022-09-09T14:18:10;3.97;;;2.40;;
18838;SDS011;9548;56.920;14.804;2022-09-09T14:20:39;4.50;;;2.10;;
18838;SDS011;9548;56.920;14.804;2022-09-09T14:23:07;4.18;;;2.40;;
18838;SDS011;9548;56.920;14.804;2022-09-09T14:25:39;2.70;;;2.20;;
18838;SDS011;9548;56.920;14.804;2022-09-09T14:28:08;5.13;;;2.40;;
18838;SDS011;9548;56.920;14.804;2022-09-09T14:30:37;2.10;;;1.80;;
18838;SDS011;9548;56.920;14.804;2022-09-09T14:33:05;2.38;;;2.00;;
18838;SDS011;9548;56.920;14.804;2022-09-09T14:35:34;3.42;;;2.00;;
18838;SDS011;9548;56.920;14.804;2022-09-09T14:38:02;2.45;;;2.00;;
18838;SDS011;9548;56.920;14.804;2022-09-09T14:40:29;4.50;;;1.95;;
18838;SDS011;9548;56.920;14.804;2022-09-09T14:42:57;2.45;;;1.75;;
18838;SDS011;9548;56.920;14.804;2022-09-09T14:45:24;3.13;;;2.08;;
18838;SDS011;9548;56.920;14.804;2022-09-09T14:47:51;2.03;;;1.80;;
18838;SDS011;9548;56.920;14.804;2022-09-09T14:50:18;3.58;;;2.00;;
18838;SDS011;9548;56.920;14.804;2022-09-09T14:52:47;3.00;;;1.98;;
18838;SDS011;9548;56.920;14.804;2022-09-09T14:55:15;3.25;;;1.90;;
18838;SDS011;9548;56.920;14.804;2022-09-09T14:57:43;2.70;;;1.88;;
18838;SDS011;9548;56.920;14.804;2022-09-09T15:00:10;3.20;;;1.77;;
18838;SDS011;9548;56.920;14.804;2022-09-09T15:02:38;4.32;;;1.80;;
18838;SDS011;9548;56.920;14.804;2022-09-09T15:05:05;2.63;;;2.33;;
18838;SDS011;9548;56.920;14.804;2022-09-09T15:07:33;1.98;;;1.70;;
18838;SDS011;9548;56.920;14.804;2022-09-09T15:10:02;2.58;;;1.70;;
18838;SDS011;9548;56.920;14.804;2022-09-09T15:12:29;1.55;;;1.45;;
18838;SDS011;9548;56.920;14.804;2022-09-09T15:14:56;2.67;;;1.65;;
18838;SDS011;9548;56.920;14.804;2022-09-09T15:17:23;2.15;;;1.50;;
18838;SDS011;9548;56.920;14.804;2022-09-09T15:19:52;2.17;;;1.65;;
18838;SDS011;9548;56.920;14.804;2022-09-09T15:22:20;2.00;;;1.77;;